sensor_id;sensor_type;location;lat;lon;timestamp;P1;durP1;ratioP1;P2;durP2;ratioP2
76701;SDS011;70097;44.536;0.146;2023-06-22T00:03:17;9.10;;;5.63;;
76701;SDS011;70097;44.536;0.146;2023-06-22T00:08:48;12.53;;;5.23;;
76701;SDS011;70097;44.536;0.146;2023-06-22T00:14:21;10.97;;;5.63;;
76701;SDS011;70097;44.536;0.146;2023-06-22T00:19:54;15.20;;;6.80;;
76701;SDS011;70097;44.536;0.146;2023-06-22T00:25:27;10.60;;;5.87;;
76701;SDS011;70097;44.536;0.146;2023-06-22T00:31:00;12.70;;;6.10;;
76701;SDS011;70097;44.536;0.146;2023-06-22T00:36:32;12.40;;;5.97;;
76701;SDS011;70097;44.536;0.146;2023-06-22T00:42:06;15.03;;;5.13;;
76701;SDS011;70097;44.536;0.146;2023-06-22T00:47:39;9.93;;;5.87;;
76701;SDS011;70097;44.536;0.146;2023-06-22T00:53:13;4.27;;;2.57;;
76701;SDS011;70097;44.536;0.146;2023-06-22T00:58:46;3.70;;;1.50;;
76701;SDS011;70097;44.536;0.146;2023-06-22T01:04:19;4.60;;;1.87;;
76701;SDS011;70097;44.536;0.146;2023-06-22T01:09:53;2.43;;;1.20;;
76701;SDS011;70097;44.536;0.146;2023-06-22T01:15:25;2.37;;;1.27;;
76701;SDS011;70097;44.536;0.146;2023-06-22T01:20:57;2.13;;;0.80;;
76701;SDS011;70097;44.536;0.146;2023-06-22T01:26:35;2.50;;;0.90;;
76701;SDS011;70097;44.536;0.146;2023-06-22T01:32:04;1.90;;;0.60;;
76701;SDS011;70097;44.536;0.146;2023-06-22T01:37:37;0.97;;;0.70;;
76701;SDS011;70097;44.536;0.146;2023-06-22T01:43:10;1.47;;;0.60;;
76701;SDS011;70097;44.536;0.146;2023-06-22T01:48:43;4.33;;;0.70;;
76701;SDS011;70097;44.536;0.146;2023-06-22T01:54:17;2.20;;;0.90;;
76701;SDS011;70097;44.536;0.146;2023-06-22T01:59:51;1.47;;;0.60;;
76701;SDS011;70097;44.536;0.146;2023-06-22T02:05:22;2.13;;;0.93;;
76701;SDS011;70097;44.536;0.146;2023-06-22T02:10:55;2.50;;;1.27;;
76701;SDS011;70097;44.536;0.146;2023-06-22T02:16:28;1.90;;;0.87;;
76701;SDS011;70097;44.536;0.146;2023-06-22T02:22:01;2.63;;;1.23;;
76701;SDS011;70097;44.536;0.146;2023-06-22T02:27:34;1.87;;;0.93;;
76701;SDS011;70097;44.536;0.146;2023-06-22T02:33:06;4.90;;;0.87;;
76701;SDS011;70097;44.536;0.146;2023-06-22T02:38:39;2.07;;;0.90;;
76701;SDS011;70097;44.536;0.146;2023-06-22T02:44:13;2.03;;;0.90;;
76701;SDS011;70097;44.536;0.146;2023-06-22T02:49:45;2.40;;;1.13;;
76701;SDS011;70097;44.536;0.146;2023-06-22T02:55:18;2.13;;;1.00;;
76701;SDS011;70097;44.536;0.146;2023-06-22T03:00:52;1.90;;;1.03;;
76701;SDS011;70097;44.536;0.146;2023-06-22T03:06:25;4.57;;;1.73;;
76701;SDS011;70097;44.536;0.146;2023-06-22T03:11:57;3.97;;;1.20;;
76701;SDS011;70097;44.536;0.146;2023-06-22T03:17:29;4.13;;;1.57;;
76701;SDS011;70097;44.536;0.146;2023-06-22T03:23:01;3.97;;;1.77;;
76701;SDS011;70097;44.536;0.146;2023-06-22T03:28:34;5.63;;;1.57;;
76701;SDS011;70097;44.536;0.146;2023-06-22T03:34:07;3.23;;;1.70;;
76701;SDS011;70097;44.536;0.146;2023-06-22T03:45:10;3.17;;;1.60;;
76701;SDS011;70097;44.536;0.146;2023-06-22T03:50:44;4.00;;;1.90;;
76701;SDS011;70097;44.536;0.146;2023-06-22T03:56:18;5.10;;;2.13;;
76701;SDS011;70097;44.536;0.146;2023-06-22T04:01:50;6.30;;;2.40;;
76701;SDS011;70097;44.536;0.146;2023-06-22T04:07:23;3.60;;;1.97;;
76701;SDS011;70097;44.536;0.146;2023-06-22T04:12:55;4.80;;;2.80;;
76701;SDS011;70097;44.536;0.146;2023-06-22T04:18:29;5.53;;;3.20;;
76701;SDS011;70097;44.536;0.146;2023-06-22T04:24:03;5.90;;;2.80;;
76701;SDS011;70097;44.536;0.146;2023-06-22T04:29:34;8.07;;;2.97;;
76701;SDS011;70097;44.536;0.146;2023-06-22T04:35:06;9.67;;;2.67;;
76701;SDS011;70097;44.536;0.146;2023-06-22T04:40:39;6.60;;;2.83;;
76701;SDS011;70097;44.536;0.146;2023-06-22T04:46:13;5.20;;;2.60;;
76701;SDS011;70097;44.536;0.146;2023-06-22T04:51:45;5.20;;;3.03;;
76701;SDS011;70097;44.536;0.146;2023-06-22T04:57:19;8.40;;;3.70;;
76701;SDS011;70097;44.536;0.146;2023-06-22T05:02:51;7.33;;;3.60;;
76701;SDS011;70097;44.536;0.146;2023-06-22T05:08:25;11.60;;;3.83;;
76701;SDS011;70097;44.536;0.146;2023-06-22T05:19:32;9.60;;;3.63;;
76701;SDS011;70097;44.536;0.146;2023-06-22T05:25:05;7.07;;;3.50;;
76701;SDS011;70097;44.536;0.146;2023-06-22T05:30:38;4.97;;;2.90;;
76701;SDS011;70097;44.536;0.146;2023-06-22T05:36:12;7.13;;;3.63;;
76701;SDS011;70097;44.536;0.146;2023-06-22T05:41:48;11.07;;;5.07;;
76701;SDS011;70097;44.536;0.146;2023-06-22T05:47:17;8.70;;;3.93;;
76701;SDS011;70097;44.536;0.146;2023-06-22T05:52:49;5.80;;;3.43;;
76701;SDS011;70097;44.536;0.146;2023-06-22T05:58:23;5.10;;;3.00;;
76701;SDS011;70097;44.536;0.146;2023-06-22T06:03:56;4.80;;;2.90;;
76701;SDS011;70097;44.536;0.146;2023-06-22T06:09:29;6.23;;;2.77;;
76701;SDS011;70097;44.536;0.146;2023-06-22T06:15:03;9.83;;;3.43;;
76701;SDS011;70097;44.536;0.146;2023-06-22T06:20:36;8.43;;;3.00;;
76701;SDS011;70097;44.536;0.146;2023-06-22T06:26:08;5.33;;;3.20;;
76701;SDS011;70097;44.536;0.146;2023-06-22T06:31:41;10.60;;;4.40;;
76701;SDS011;70097;44.536;0.146;2023-06-22T06:37:14;7.53;;;3.03;;
76701;SDS011;70097;44.536;0.146;2023-06-22T06:42:46;8.63;;;3.80;;
76701;SDS011;70097;44.536;0.146;2023-06-22T06:48:19;9.13;;;3.70;;
76701;SDS011;70097;44.536;0.146;2023-06-22T06:53:52;6.97;;;3.60;;
76701;SDS011;70097;44.536;0.146;2023-06-22T06:59:24;7.30;;;4.47;;
76701;SDS011;70097;44.536;0.146;2023-06-22T07:04:57;7.33;;;4.20;;
76701;SDS011;70097;44.536;0.146;2023-06-22T07:10:31;5.97;;;3.63;;
76701;SDS011;70097;44.536;0.146;2023-06-22T07:16:05;7.67;;;4.13;;
76701;SDS011;70097;44.536;0.146;2023-06-22T07:21:37;10.53;;;4.97;;
76701;SDS011;70097;44.536;0.146;2023-06-22T07:27:11;12.20;;;5.37;;
76701;SDS011;70097;44.536;0.146;2023-06-22T07:32:44;8.77;;;4.90;;
76701;SDS011;70097;44.536;0.146;2023-06-22T07:38:17;7.37;;;3.93;;
76701;SDS011;70097;44.536;0.146;2023-06-22T07:43:50;15.27;;;6.47;;
76701;SDS011;70097;44.536;0.146;2023-06-22T07:49:23;13.40;;;5.33;;
76701;SDS011;70097;44.536;0.146;2023-06-22T07:54:57;12.47;;;5.80;;
76701;SDS011;70097;44.536;0.146;2023-06-22T08:00:29;14.37;;;5.67;;
76701;SDS011;70097;44.536;0.146;2023-06-22T08:06:03;12.07;;;5.47;;
76701;SDS011;70097;44.536;0.146;2023-06-22T08:11:37;11.27;;;5.70;;
76701;SDS011;70097;44.536;0.146;2023-06-22T08:17:08;11.97;;;5.23;;
76701;SDS011;70097;44.536;0.146;2023-06-22T08:22:41;10.53;;;5.40;;
76701;SDS011;70097;44.536;0.146;2023-06-22T08:28:13;7.20;;;4.27;;
76701;SDS011;70097;44.536;0.146;2023-06-22T08:33:45;11.03;;;6.57;;
76701;SDS011;70097;44.536;0.146;2023-06-22T08:39:18;11.57;;;5.83;;
76701;SDS011;70097;44.536;0.146;2023-06-22T08:44:52;9.00;;;5.53;;
76701;SDS011;70097;44.536;0.146;2023-06-22T08:50:23;7.83;;;4.97;;
76701;SDS011;70097;44.536;0.146;2023-06-22T08:55:56;9.33;;;5.03;;
76701;SDS011;70097;44.536;0.146;2023-06-22T09:01:29;8.93;;;5.37;;
76701;SDS011;70097;44.536;0.146;2023-06-22T09:07:01;9.53;;;5.20;;
76701;SDS011;70097;44.536;0.146;2023-06-22T09:18:06;9.40;;;6.13;;
76701;SDS011;70097;44.536;0.146;2023-06-22T09:23:39;9.63;;;5.90;;
76701;SDS011;70097;44.536;0.146;2023-06-22T09:29:13;9.60;;;5.93;;
76701;SDS011;70097;44.536;0.146;2023-06-22T09:34:45;10.37;;;5.40;;
76701;SDS011;70097;44.536;0.146;2023-06-22T09:40:18;8.30;;;5.13;;
76701;SDS011;70097;44.536;0.146;2023-06-22T09:45:51;12.10;;;5.30;;
76701;SDS011;70097;44.536;0.146;2023-06-22T09:51:27;8.00;;;4.80;;
76701;SDS011;70097;44.536;0.146;2023-06-22T09:56:56;8.50;;;4.90;;
76701;SDS011;70097;44.536;0.146;2023-06-22T10:02:29;7.97;;;4.97;;
76701;SDS011;70097;44.536;0.146;2023-06-22T10:08:03;9.47;;;4.77;;
76701;SDS011;70097;44.536;0.146;2023-06-22T10:13:35;8.30;;;4.03;;
76701;SDS011;70097;44.536;0.146;2023-06-22T10:19:08;7.97;;;4.40;;
76701;SDS011;70097;44.536;0.146;2023-06-22T10:24:43;7.50;;;3.53;;
76701;SDS011;70097;44.536;0.146;2023-06-22T10:30:14;6.50;;;3.30;;
76701;SDS011;70097;44.536;0.146;2023-06-22T10:35:46;7.53;;;3.10;;
76701;SDS011;70097;44.536;0.146;2023-06-22T10:41:20;5.17;;;3.30;;
76701;SDS011;70097;44.536;0.146;2023-06-22T10:46:52;6.53;;;3.70;;
76701;SDS011;70097;44.536;0.146;2023-06-22T10:52:25;5.93;;;3.50;;
76701;SDS011;70097;44.536;0.146;2023-06-22T10:58:00;6.57;;;3.60;;
76701;SDS011;70097;44.536;0.146;2023-06-22T11:03:32;4.73;;;3.53;;
76701;SDS011;70097;44.536;0.146;2023-06-22T11:09:05;5.60;;;3.03;;
76701;SDS011;70097;44.536;0.146;2023-06-22T11:14:39;7.03;;;3.27;;
76701;SDS011;70097;44.536;0.146;2023-06-22T11:20:09;7.63;;;3.13;;
76701;SDS011;70097;44.536;0.146;2023-06-22T11:25:41;5.03;;;2.80;;
76701;SDS011;70097;44.536;0.146;2023-06-22T11:31:15;6.23;;;3.03;;
76701;SDS011;70097;44.536;0.146;2023-06-22T11:36:48;7.60;;;3.57;;
76701;SDS011;70097;44.536;0.146;2023-06-22T11:42:21;3.90;;;2.60;;
76701;SDS011;70097;44.536;0.146;2023-06-22T11:47:55;4.53;;;2.60;;
76701;SDS011;70097;44.536;0.146;2023-06-22T11:53:28;6.47;;;3.13;;
76701;SDS011;70097;44.536;0.146;2023-06-22T11:59:01;5.53;;;2.73;;
76701;SDS011;70097;44.536;0.146;2023-06-22T12:04:33;7.07;;;2.87;;
76701;SDS011;70097;44.536;0.146;2023-06-22T12:10:07;4.30;;;2.53;;
76701;SDS011;70097;44.536;0.146;2023-06-22T12:15:40;4.80;;;2.87;;
76701;SDS011;70097;44.536;0.146;2023-06-22T12:21:13;5.07;;;2.70;;
76701;SDS011;70097;44.536;0.146;2023-06-22T12:26:45;6.60;;;3.17;;
76701;SDS011;70097;44.536;0.146;2023-06-22T12:32:17;5.17;;;2.23;;
76701;SDS011;70097;44.536;0.146;2023-06-22T12:37:49;7.63;;;2.27;;
76701;SDS011;70097;44.536;0.146;2023-06-22T12:43:23;3.20;;;2.20;;
76701;SDS011;70097;44.536;0.146;2023-06-22T12:48:55;6.93;;;2.40;;
76701;SDS011;70097;44.536;0.146;2023-06-22T12:54:29;4.57;;;2.70;;
76701;SDS011;70097;44.536;0.146;2023-06-22T13:00:02;4.00;;;2.57;;
76701;SDS011;70097;44.536;0.146;2023-06-22T13:05:35;5.43;;;2.90;;
76701;SDS011;70097;44.536;0.146;2023-06-22T13:11:08;8.03;;;3.00;;
76701;SDS011;70097;44.536;0.146;2023-06-22T13:16:40;5.13;;;2.73;;
76701;SDS011;70097;44.536;0.146;2023-06-22T13:27:50;6.00;;;2.40;;
76701;SDS011;70097;44.536;0.146;2023-06-22T13:33:18;8.43;;;2.77;;
76701;SDS011;70097;44.536;0.146;2023-06-22T13:38:51;6.60;;;3.10;;
76701;SDS011;70097;44.536;0.146;2023-06-22T13:44:24;5.33;;;2.30;;
76701;SDS011;70097;44.536;0.146;2023-06-22T13:49:56;5.43;;;2.20;;
76701;SDS011;70097;44.536;0.146;2023-06-22T13:55:29;4.80;;;2.77;;
76701;SDS011;70097;44.536;0.146;2023-06-22T14:01:01;7.00;;;2.70;;
76701;SDS011;70097;44.536;0.146;2023-06-22T14:06:34;4.80;;;2.70;;
76701;SDS011;70097;44.536;0.146;2023-06-22T14:12:07;17.17;;;4.30;;
76701;SDS011;70097;44.536;0.146;2023-06-22T14:17:40;6.83;;;3.03;;
76701;SDS011;70097;44.536;0.146;2023-06-22T14:23:13;5.70;;;3.10;;
76701;SDS011;70097;44.536;0.146;2023-06-22T14:28:45;7.17;;;3.00;;
76701;SDS011;70097;44.536;0.146;2023-06-22T14:34:18;8.00;;;2.90;;
76701;SDS011;70097;44.536;0.146;2023-06-22T14:39:51;10.77;;;3.57;;
76701;SDS011;70097;44.536;0.146;2023-06-22T14:50:56;6.37;;;1.93;;
76701;SDS011;70097;44.536;0.146;2023-06-22T14:56:27;3.20;;;1.97;;
76701;SDS011;70097;44.536;0.146;2023-06-22T15:02:00;7.57;;;2.63;;
76701;SDS011;70097;44.536;0.146;2023-06-22T15:07:33;5.73;;;3.53;;
76701;SDS011;70097;44.536;0.146;2023-06-22T15:13:06;8.63;;;3.60;;
76701;SDS011;70097;44.536;0.146;2023-06-22T15:18:38;7.90;;;3.67;;
76701;SDS011;70097;44.536;0.146;2023-06-22T15:24:11;8.30;;;3.40;;
76701;SDS011;70097;44.536;0.146;2023-06-22T15:29:44;8.90;;;3.43;;
76701;SDS011;70097;44.536;0.146;2023-06-22T15:35:18;6.53;;;3.53;;
76701;SDS011;70097;44.536;0.146;2023-06-22T15:40:51;5.00;;;3.37;;
76701;SDS011;70097;44.536;0.146;2023-06-22T15:46:23;6.73;;;3.23;;
76701;SDS011;70097;44.536;0.146;2023-06-22T15:51:56;6.73;;;3.07;;
76701;SDS011;70097;44.536;0.146;2023-06-22T15:57:30;6.07;;;2.50;;
76701;SDS011;70097;44.536;0.146;2023-06-22T16:03:02;5.27;;;2.80;;
76701;SDS011;70097;44.536;0.146;2023-06-22T16:08:36;6.83;;;2.50;;
76701;SDS011;70097;44.536;0.146;2023-06-22T16:14:06;7.30;;;2.73;;
76701;SDS011;70097;44.536;0.146;2023-06-22T16:19:40;5.87;;;2.20;;
76701;SDS011;70097;44.536;0.146;2023-06-22T16:25:13;6.00;;;2.60;;
76701;SDS011;70097;44.536;0.146;2023-06-22T16:30:48;5.53;;;2.63;;
76701;SDS011;70097;44.536;0.146;2023-06-22T16:36:19;5.63;;;2.90;;
76701;SDS011;70097;44.536;0.146;2023-06-22T16:41:51;4.87;;;2.30;;
76701;SDS011;70097;44.536;0.146;2023-06-22T16:47:24;5.17;;;2.73;;
76701;SDS011;70097;44.536;0.146;2023-06-22T16:52:58;4.97;;;2.57;;
76701;SDS011;70097;44.536;0.146;2023-06-22T16:58:31;5.47;;;2.33;;
76701;SDS011;70097;44.536;0.146;2023-06-22T17:04:06;5.70;;;2.33;;
76701;SDS011;70097;44.536;0.146;2023-06-22T17:09:37;4.47;;;2.60;;
76701;SDS011;70097;44.536;0.146;2023-06-22T17:15:10;6.13;;;2.97;;
76701;SDS011;70097;44.536;0.146;2023-06-22T17:20:42;5.83;;;2.60;;
76701;SDS011;70097;44.536;0.146;2023-06-22T17:26:14;6.27;;;3.17;;
76701;SDS011;70097;44.536;0.146;2023-06-22T17:31:47;6.47;;;3.20;;
76701;SDS011;70097;44.536;0.146;2023-06-22T17:37:19;5.90;;;2.80;;
76701;SDS011;70097;44.536;0.146;2023-06-22T17:42:51;5.87;;;3.00;;
76701;SDS011;70097;44.536;0.146;2023-06-22T17:48:25;5.73;;;2.90;;
76701;SDS011;70097;44.536;0.146;2023-06-22T17:53:56;7.77;;;3.63;;
76701;SDS011;70097;44.536;0.146;2023-06-22T17:59:29;5.13;;;3.17;;
76701;SDS011;70097;44.536;0.146;2023-06-22T18:05:02;4.97;;;2.93;;
76701;SDS011;70097;44.536;0.146;2023-06-22T18:10:34;6.90;;;3.57;;
76701;SDS011;70097;44.536;0.146;2023-06-22T18:16:07;5.20;;;2.70;;
76701;SDS011;70097;44.536;0.146;2023-06-22T18:21:39;9.20;;;3.77;;
76701;SDS011;70097;44.536;0.146;2023-06-22T18:27:11;5.40;;;3.40;;
76701;SDS011;70097;44.536;0.146;2023-06-22T18:32:43;7.90;;;3.63;;
76701;SDS011;70097;44.536;0.146;2023-06-22T18:38:15;8.47;;;3.10;;
76701;SDS011;70097;44.536;0.146;2023-06-22T18:43:51;8.57;;;3.67;;
76701;SDS011;70097;44.536;0.146;2023-06-22T18:49:22;7.50;;;3.47;;
76701;SDS011;70097;44.536;0.146;2023-06-22T18:54:52;5.63;;;3.53;;
76701;SDS011;70097;44.536;0.146;2023-06-22T19:00:29;12.33;;;3.90;;
76701;SDS011;70097;44.536;0.146;2023-06-22T19:05:58;10.13;;;4.83;;
76701;SDS011;70097;44.536;0.146;2023-06-22T19:11:30;9.70;;;3.97;;
76701;SDS011;70097;44.536;0.146;2023-06-22T19:17:04;9.20;;;4.37;;
76701;SDS011;70097;44.536;0.146;2023-06-22T19:22:44;12.30;;;4.33;;
76701;SDS011;70097;44.536;0.146;2023-06-22T19:33:42;9.23;;;4.77;;
76701;SDS011;70097;44.536;0.146;2023-06-22T19:39:14;6.77;;;4.10;;
76701;SDS011;70097;44.536;0.146;2023-06-22T19:44:47;6.47;;;4.33;;
76701;SDS011;70097;44.536;0.146;2023-06-22T19:50:21;8.27;;;4.50;;
76701;SDS011;70097;44.536;0.146;2023-06-22T19:55:53;10.50;;;4.80;;
76701;SDS011;70097;44.536;0.146;2023-06-22T20:01:27;13.60;;;6.27;;
76701;SDS011;70097;44.536;0.146;2023-06-22T20:07:00;9.20;;;4.23;;
76701;SDS011;70097;44.536;0.146;2023-06-22T20:12:32;7.10;;;4.00;;
76701;SDS011;70097;44.536;0.146;2023-06-22T20:18:06;7.67;;;4.20;;
76701;SDS011;70097;44.536;0.146;2023-06-22T20:23:39;10.60;;;5.23;;
76701;SDS011;70097;44.536;0.146;2023-06-22T20:34:44;9.20;;;5.40;;
76701;SDS011;70097;44.536;0.146;2023-06-22T20:40:16;11.10;;;5.90;;
76701;SDS011;70097;44.536;0.146;2023-06-22T20:45:48;14.07;;;6.10;;
76701;SDS011;70097;44.536;0.146;2023-06-22T20:51:21;8.17;;;4.37;;
76701;SDS011;70097;44.536;0.146;2023-06-22T20:56:54;12.73;;;4.70;;
76701;SDS011;70097;44.536;0.146;2023-06-22T21:02:26;9.77;;;5.43;;
76701;SDS011;70097;44.536;0.146;2023-06-22T21:08:01;7.33;;;4.50;;
76701;SDS011;70097;44.536;0.146;2023-06-22T21:13:33;10.27;;;4.87;;
76701;SDS011;70097;44.536;0.146;2023-06-22T21:19:07;7.93;;;4.80;;
76701;SDS011;70097;44.536;0.146;2023-06-22T21:24:40;12.53;;;5.87;;
76701;SDS011;70097;44.536;0.146;2023-06-22T21:30:12;15.33;;;5.50;;
76701;SDS011;70097;44.536;0.146;2023-06-22T21:35:45;12.40;;;6.67;;
76701;SDS011;70097;44.536;0.146;2023-06-22T21:41:18;14.27;;;5.87;;
76701;SDS011;70097;44.536;0.146;2023-06-22T21:46:50;11.03;;;5.57;;
76701;SDS011;70097;44.536;0.146;2023-06-22T21:52:23;11.23;;;5.63;;
76701;SDS011;70097;44.536;0.146;2023-06-22T21:57:54;13.67;;;6.27;;
76701;SDS011;70097;44.536;0.146;2023-06-22T22:03:27;12.30;;;6.57;;
76701;SDS011;70097;44.536;0.146;2023-06-22T22:09:00;11.93;;;6.33;;
76701;SDS011;70097;44.536;0.146;2023-06-22T22:14:32;10.17;;;5.53;;
76701;SDS011;70097;44.536;0.146;2023-06-22T22:20:05;11.13;;;6.30;;
76701;SDS011;70097;44.536;0.146;2023-06-22T22:25:38;14.57;;;6.93;;
76701;SDS011;70097;44.536;0.146;2023-06-22T22:31:11;11.27;;;6.70;;
76701;SDS011;70097;44.536;0.146;2023-06-22T22:36:44;15.97;;;7.00;;
76701;SDS011;70097;44.536;0.146;2023-06-22T22:42:18;10.87;;;6.57;;
76701;SDS011;70097;44.536;0.146;2023-06-22T22:47:51;12.57;;;6.40;;
76701;SDS011;70097;44.536;0.146;2023-06-22T22:53:24;14.67;;;7.27;;
76701;SDS011;70097;44.536;0.146;2023-06-22T22:58:57;13.70;;;7.63;;
76701;SDS011;70097;44.536;0.146;2023-06-22T23:04:29;17.13;;;7.07;;
76701;SDS011;70097;44.536;0.146;2023-06-22T23:10:01;14.67;;;8.40;;
76701;SDS011;70097;44.536;0.146;2023-06-22T23:15:34;23.77;;;10.37;;
76701;SDS011;70097;44.536;0.146;2023-06-22T23:21:06;14.83;;;8.47;;
76701;SDS011;70097;44.536;0.146;2023-06-22T23:26:39;15.00;;;7.77;;
76701;SDS011;70097;44.536;0.146;2023-06-22T23:32:11;24.63;;;8.77;;
76701;SDS011;70097;44.536;0.146;2023-06-22T23:37:44;15.20;;;8.40;;
76701;SDS011;70097;44.536;0.146;2023-06-22T23:43:17;12.60;;;8.23;;
76701;SDS011;70097;44.536;0.146;2023-06-22T23:48:50;23.57;;;9.87;;
76701;SDS011;70097;44.536;0.146;2023-06-22T23:54:22;15.37;;;8.67;;
76701;SDS011;70097;44.536;0.146;2023-06-22T23:59:56;18.67;;;8.93;;
